Timeline UpdatesTrip UpdatesNews PostsPvt PostsTravel TipsAdmin PostsConv PostsFollowed PostsChat RequestsBlog PostsPNR Posts

Disclaimer
Search
 
 
Fri Apr 25, 2014 12:20:43 ISTHomeTrainsΣChainsAtlasPNRForumGalleryNewsFAQTripsMembersLoginFeedback
No Recent News for this Train
Other Trains in the News **new
Latest...
.
Sat Nov 30, 2013 (12:16PM)
⇐ Return Journey: Train# 13352-Slip

18189/Tatanagar- Alappuzha Alleppey Express-Slip

Mar 11 2014 (6:26PM)
Change Departure Station:
Change Arrival Station:
Post a Train Travel TipPost a Train Travel Tip **new
Post a Comment/Question/Picture/VideoPost a Comment/Question/Picture/Video
Pantry/Catering
✓ Pantry Car Avbl
✓ Catering Avbl
.pantry car available from rourkela to allappuzha because pantry car...
Read more...
is available in dhanbad portion
Loco/Rake Reversals
MAS/Chennai Central (12); VSKP/Visakhapatnam Junction (8); SRR/Shoranur Junction (7);
RSA - Rake Sharing
Rake/Coach Composition
LOCO-SLR*-GS*-S1*-S2*-S3*-S4*-S5*-S6*-S7*-S8*-PC*-A1*-B1*-B2-ST1-ST2-ST3-ST4-ST5-GS-SLR; *= Dhanbad portion attached at ROU.
Loco
Loco In-Charge:- TATA - ROU :- TATA WAM-4/ASN WAM-4 ROU - VSKP...
Read more...
:- VSKP/R/BNDM WDM-3A VSKP - MAS :- AJJ WAM-4/BZA WAM-4 - RPM WAP-4/1 MAS - ALLP :- RPM WAP-1/WAP-4, AJJ WAM-4/WAP-4
News    PNR    Forum    Time-Table    Availability    Fare Chart    Map    Arr/Dep History    Trips    Gallery    ΣChains    X/O    Timeline    
Travel Time: 6h 33m    10 halts    Distance: 294 km    Avg Speed: 44 km/hr
Type: Mail/Express
Zone: SER/South Eastern
Departs @ 17:45 (Avg 38m late)
Platform# ???
SMTWTFS
Vijayawada Junction/BZA 
Arrives @ 00:18 +1 night (Avg 6m late)
Platform# 2
SMTWTFS
Gudur Junction/GDR 

10 halts. 47 intermediate Stations between Vijayawada Junction and Gudur Junction

Show ALL intermediate Stations  Show Old Time-Table

#CodeStation NameX/OArrivesAvgDepartsAvgHaltPFDay#KmSpeedElevZoneAddress
1TATATatanagar Junction (5)  -15:45+111-1171.865164mSER91-657-2423026, Jharkhand
2SINISini JunctionX  16:10+1016:11+111m--1-1144.865182mSERNational Highway 33, Jharkhand
3RKSNRajkharsawan Junction  16:25+1216:26+131m--1-1129.650189mSERWest Singhbhum district, Jharkhand
4CKPChakradharpur (3)  16:50+616:55+75m11-1109.597235mSERChakradharpur (West Singhbhum), Jharkhand
5GOLGoilkeraX  17:16+1417:17+161m--1-1075.857333mSERGoilkera, Jharkhand
6MOUManoharpur  17:46+1217:47+131m--1-1048.368228mSERManoharpur, Jharkhand
7JRAJaraikela17:57+1117:58+121m--1-1036.982215mSERJaraikela Station, Jharkhand
8BNDMBondamunda (3)O  18:14+1318:15+131m--1-1015.020213mSERRourkela, Odisha
9ROURourkela Junction (5)X  18:35+1219:00+3425m11-1008.564198mSERRourkela, Odisha
10GPRaj Gangpur (3)  19:28+3819:29+391m--1-978.769237mSERRaj Ganpur, Odisha
11BMBBamra (3)X  19:59+3920:00+391m--1-944.155259mSERBamra PH : 06642-229268, Odisha
12JSGJharsuguda Junction (5)  20:40+2220:50+2010m11-907.563236mSERJharsuguda, Odisha
13RGLRengali  21:15+4621:17+462m--1-881.269208mECoRState Highway 10, Odisha
14SBPDSambalpur Road  21:35+4721:37+472m--1-860.411161mECoRSambalpur, Odisha
15SBPSambalpur Junction (3)X  21:45+4721:55+4910m11-858.964159mECoRSambalpur, Odisha
16ATSAttabira  22:18+5322:20+562m--1-834.477164mECoRBargarh, Odisha
17BRGABargarh RoadX  22:34+5922:39+1:045m--1-816.464185mECoRBargarh, Odisha
18BRPLBarpaliX  22:57+1:0422:59+1:092m--1-797.267178mECoRBarpali, Odisha
19BLGRBalangir  23:50+1:1523:55+1:225m--1-740.147210mECoRBolangir, Odisha
20BUDMBadmal  00:50+1:1000:52+1:122m--2-696.723209mECoRDumerbahal Rd, Odisha
21TIGTitlagarh JunctionX  01:45+4301:55+4510m--2-676.756212mECoRTitlagarh, Odisha
22KSNGKesinga (1)X  02:10+4702:12+472m12-662.865183mECoRKesinga, Odisha
23RPRDRupra Road  02:27+4902:29+492m--2-646.644233mECoRKalahandi, Odisha
24NRLRNorla Road  02:38+4802:40+482m--2-639.960247mECoRKalahandi, Odisha
25AMBAmbodala  03:05+4803:07+492m--2-614.939374mECoRState Highway 6, Odisha
26MNGDMunigudaX  03:45+3703:47+392m--2-590.041335mECoRMuniguda, Odisha
27THVTherubali  04:40+2404:42+252m--2-554.031270mECoRRayagada, Odisha
28SPRDSingapuram Road (2)X  05:00+2205:02+252m--2-544.615248mECoRJaykaypur, Odisha
29RGDARayagada (3)  05:40+1005:55+1315m--2-535.473229mECoRRayagada ph.no 06856-222407, Odisha
30PVPTParvatipuram TownX  06:32+1506:34+152m--2-490.125121mECoRParvatipuram, Andhra Pradesh
31PVPParvatipuram (3)X  06:38+1506:40+152m--2-488.472122mECoRParvatipuram, Andhra Pradesh
32VBLBobbili Junction (2)X  07:00+1407:03+143m22-464.545137mECoRBobbili, Andhra Pradesh
33VZMVizianagaram Junction (5)  08:15+308:20+85m--2-410.37563mECoRVizianagaram, Andhra Pradesh
34KTVKottavalasa Junction (5)X  08:48+2008:50+232m--2-375.34058mECoRVizianagaram District, Andhra Pradesh
35SCMSimhachalam (2)  09:17+309:19+32m--2-357.21127mECoRVisakhapatnam, Andhra Pradesh
36VSKPVisakhapatnam Junction (8)X10:05+710:25+920m42-349.13311mECoRVishakhapatnam 530001, Andhra Pradesh
37DVDDuvvada (4)X  10:55+910:57+102m--2-332.87446mECoRVishakhapatnam District, Andhra Pradesh
38AKPAnakapalle (3)  11:10+1811:11+201m--2-316.87130mSCRAnakapalle ph.no . 08924-221698, Andhra Pradesh
39YLMElamanchili (2)X  11:31+2311:32+271m--2-293.07123mSCRVisakhapatnam District, Andhra Pradesh
40NRPNarsipatnam Road (2)  11:47+3111:48+311m--2-275.38418mSCRVisakhapatnam District, Andhra Pradesh
41TUNITuni (2)X  12:04+3912:05+401m12-253.07124mSCRTuni ph.no. 08854-252172, Andhra Pradesh
42ANVAnnavaram (3)  12:19+4312:20+451m12-236.37627mSCREast Godavari District, Andhra Pradesh
43GLPGollaproluX  12:35+4912:36+491m--2-217.34919mSCRGollaprollu, Andhra Pradesh
44PAPPithapuram (2)  12:43+5012:44+521m--2-211.57222mSCREast Godavari District, Andhra Pradesh
45SLOSamalkot Junction (3)  12:54+5512:55+561m32-199.58418mSCRSamalkot, Andhra Pradesh
46APTAnaparti (3)  13:14+5913:15+591m--2-173.03821mSCREast Godavari District, Andhra Pradesh
47DWPDwarapudi (3)X  13:21+5813:22+591m--2-169.22420mSCREast Godavari District, Andhra Pradesh
48RJYRajahmundry (3)  14:11+3914:16+405m12-149.33623mSCRRajahmundry ph.no. 0883-2420541, Andhra Pradesh
49KVRKovvur (3)  14:29+4314:30+441m--2-141.56125mSCRWest Godavari, Andhra Pradesh
50NDDNidadavolu Junction (3)  14:44+4814:45+501m--2-127.17120mSCRNidadavolu jtn ph.no. 08813-210325, Andhra Pradesh
51TDDTadepalligudem (3)X  15:02+5115:03+511m--2-107.18718mSCRTadepalligudem, Andhra Pradesh
52EEEluru (3)  15:36+5915:37+1:001m32-59.43319mSCREluru Ph.no. 08812 226401., Andhra Pradesh
53BZA»Vijayawada Junction (10)»X  17:25+3817:45+3820m--20.06924mSCRVijayawada 520001, Andhra Pradesh
54TELTenali Junction (5)  18:12+5318:13+551m3231.26616mSCRTel: 08644-227834, Andhra Pradesh
55NDONidubrolu (3)  18:33+5918:34+1:001m--253.3659mSCRNidubrolu, Andhra Pradesh
56BPPBapatla (3)X  18:53+1:0318:54+1:041m--273.87510mSCRBapatla, Andhra Pradesh
57CLXChirala (4)X  19:06+1:0719:07+1:091m--288.9768mSCRChirala, Andhra Pradesh
58CJMChinnaganjam (3)X  19:23+1:1119:24+1:121m--2109.2369mSCRChinna Ganjam, Andhra Pradesh
59OGLOngole (3)X  20:12+5620:13+571m32138.37712mSCROngole, Andhra Pradesh
60SKMSingarayakonda (3)X  20:35+1:0420:36+1:041m32166.59126mSCRSingarayakonda, Andhra Pradesh
61KVZKavali (4)X  21:01+1:0921:02+1:091m22204.37621mSCRKavali, Andhra Pradesh
62BTTRBitragunta (2)X  21:15+1:0221:16+1:031m22220.74515mSCRBitragunta, Andhra Pradesh
63NLRNellore (4)X  22:02+1822:03+171m32255.01721mSCRNellore, Andhra Pradesh
64GDR•Gudur Junction (3)•  00:18+600:20+72m23293.56919mSCRGudur, Andhra Pradesh
65NYPNayadupeta (3)  00:44+1500:45+151m23321.26833mSRNayudupeta, Andhra Pradesh
66SPESullurupeta (3)  01:09+1401:10+151m23348.4459mSRSullurupeta, Andhra Pradesh
67MASChennai Central (12)03:00+1003:25+1125m83430.9579mSRChennai 600003, Tamil Nadu
68TRLTiruvallur (6)  04:09+1304:10+151m--3472.66550mSRTiruvallur, Tamil Nadu
69AJJArakkonam Junction (8)  04:35+1304:40+135m--3499.56891mSRArakkonam, Tamil Nadu
70MCNMukundarayapuram (2)  05:19+1105:20+131m--3543.833198mSRSipcot Ranipet, Tamil Nadu
71KPDKatpadi Junction (5)  05:50+505:55+95m13560.377213mSRVellore 632007, Tamil Nadu
72GYMGudiyattam (3)  06:14+1306:15+141m33584.891269mSRVellore, Tamil Nadu
73VNVaniyambadiXO  06:44+1706:45+181m--3628.728357mSRVaniyambadi, Tamil Nadu
74JTJJolarpettai Junction (5)  07:18+507:20+92m--3644.244405mSRJolarpettai, Tamil Nadu
75TPTTirupattur Junction (2)X  07:30+1207:32+132m--3651.578392mSRTirupattur ph.no. 04179-220062, Tamil Nadu
76SLYSamalpatti  07:50+1707:52+172m--3674.890381mSRSamalpatti ph.no. 04341-245601, Tamil Nadu
77BQIBommidiX  08:23+1908:25+192m--3721.3740mSRBommidi ph.no. 04346-244441, Tamil Nadu
78SASalem Junction (6)X  09:00+2509:05+255m--3764.353283mSRSalem, Tamil Nadu
79EDErode Junction (4)X  10:15+1610:25+2510m23826.179175mSRErode ph.no: 0424-2256111, Tamil Nadu
80TUPTiruppur (2)  11:03+3011:05+302m13876.048305mSRTiruppur. Ph:0421-2200450, Tamil Nadu
81CBECoimbatore Main Junction (6)  12:08+1812:10+192m--3926.642411mSRCoimbatore 641001, Tamil Nadu
82PGTPalakkad Junction (4)  13:30+1213:35+155m--3982.34184mSRPalghat Tel: 0491 2555231, Kerala
83SRRShoranur Junction (7)XO14:40+2715:25+2945m531026.73226mSRShoranur ph.no 0466-2222913, Kerala
84TCRThrissur (4)  16:27+1616:30+173m131059.6686mSRThrissur Tel: 0487 2423150, Kerala
85AWYAluva (3)XO  17:18+2317:20+252m--31114.21812mSRPh: 0484-2624141, Kerala
86ERSErnakulam Junction (South) (6)  18:26+1118:30+184m131133.6413mSRErnakulam 682016, Kerala
87TUVRTuravur (2)  19:04+3019:05+311m--31157.0435mSRThuravoor, Kerala
88SRTLCherthala (3)  19:19+3019:20+311m231167.01327mSRPh: 0478- 2812500, Kerala
89MAKMMararikkulam (1)X  19:25+3419:45+3120m--31178.02312mSRMararikulam, Kerala
90ALLPAlappuzha (3)  20:20+13-331191.1-8mSRPh:0477-2253965, Kerala
Scroll to Top
Scroll to Bottom